Terminal Aerodrome Forecast
Issued by NWS

Home | Current Version | Previous Version | Text Only | Print | Product List | Glossary On
Versions: 1 2 3 4 5 6 7 8 9 10 11 12 13 14 15 16 17 18 19 20 21 22 23 24 25 26 27
000
FTUS43 KLSX 292300
TAFCPS
TAF
KCPS 292324Z 3000/3024 31009KT P6SM VCTS SCT035CB SCT100
      TEMPO 3000/3002 4SM -TSRA
     FM300200 27004KT P6SM SCT070
     FM301500 28011KT P6SM SCT040 SCT100=

USA.gov is the U.S. government's official web portal to all federal, state and local government web resources and services.